Time;durP1;ratioP1;P1;durP2;ratioP2;P2;SDS_P1;SDS_P2;PMS_P1;PMS_P2;Temp;Humidity;BMP_temperature;BMP_pressure;BME280_temperature;BME280_humidity;BME280_pressure;Samples;Min_cycle;Max_cycle;Signal;HPM_P1;HPM_P2
2023/09/05 00:02:19;;;;;;;;;1.40;1.40;;;;;19.41;61.74;100359.47;5090557;28;8846;-59
2023/09/05 00:04:47;;;;;;;;;2.80;1.20;;;;;19.48;61.90;100358.63;5095499;28;8803;-60
2023/09/05 00:07:16;;;;;;;;;1.80;1.80;;;;;19.55;62.05;100361.47;5095100;28;8803;-61
2023/09/05 00:09:44;;;;;;;;;1.40;1.40;;;;;19.66;61.54;100353.06;5094974;28;8962;-60
2023/09/05 00:12:12;;;;;;;;;2.20;2.20;;;;;19.70;61.17;100360.66;5094879;28;8831;-60
2023/09/05 00:14:39;;;;;;;;;1.00;1.00;;;;;19.75;61.60;100352.03;5095119;28;8819;-59
2023/09/05 00:17:07;;;;;;;;;1.00;1.00;;;;;19.83;61.33;100346.63;5095162;28;8846;-60
2023/09/05 00:19:34;;;;;;;;;2.00;2.00;;;;;19.87;60.89;100343.41;5095151;28;8846;-60
2023/09/05 00:22:02;;;;;;;;;2.00;2.00;;;;;19.88;60.78;100341.53;5094901;28;8808;-59
2023/09/05 00:24:31;;;;;;;;;2.20;2.00;;;;;19.85;60.85;100342.72;5094928;28;9661;-61
2023/09/05 00:26:59;;;;;;;;;1.00;1.00;;;;;19.81;61.41;100340.53;5094929;28;8915;-61
2023/09/05 00:29:27;;;;;;;;;2.20;2.20;;;;;19.78;61.14;100336.31;5094671;28;8830;-60
2023/09/05 00:31:59;;;;;;;;;2.20;2.20;;;;;19.75;61.30;100339.38;5095072;28;8838;-61
2023/09/05 00:34:27;;;;;;;;;0.20;0.20;;;;;19.82;61.16;100329.56;5095360;28;8811;-60
2023/09/05 00:36:55;;;;;;;;;1.60;1.60;;;;;19.85;61.03;100323.81;5094776;28;8815;-60
2023/09/05 00:39:22;;;;;;;;;1.80;1.40;;;;;19.88;60.65;100336.13;5094821;28;8808;-61
2023/09/05 00:41:50;;;;;;;;;1.00;1.00;;;;;19.86;60.90;100338.19;5094983;28;8811;-58
2023/09/05 00:44:18;;;;;;;;;3.20;2.80;;;;;19.85;61.37;100342.72;5094904;28;8848;-61
2023/09/05 00:46:46;;;;;;;;;1.80;1.00;;;;;19.88;61.13;100336.97;5095116;28;8828;-61
2023/09/05 00:49:15;;;;;;;;;3.20;2.20;;;;;19.87;60.82;100335.28;5094572;28;8850;-60
2023/09/05 00:51:45;;;;;;;;;2.00;2.00;;;;;19.84;61.09;100335.63;5094019;28;8835;-59
2023/09/05 00:54:13;;;;;;;;;2.20;2.00;;;;;19.85;60.99;100337.31;5095108;28;9555;-61
2023/09/05 00:56:41;;;;;;;;;4.00;3.20;;;;;19.87;61.06;100329.88;5094226;28;9497;-57
2023/09/05 00:59:08;;;;;;;;;1.00;1.00;;;;;19.87;60.84;100327.16;5093986;28;8811;-59
2023/09/05 01:01:36;;;;;;;;;3.60;3.60;;;;;19.85;60.95;100326.50;5094719;28;8815;-60
2023/09/05 01:04:03;;;;;;;;;2.00;2.00;;;;;19.88;60.63;100336.97;5094079;28;8851;-61
2023/09/05 01:06:31;;;;;;;;;2.00;2.00;;;;;19.96;60.78;100330.72;5094001;28;8823;-61
2023/09/05 01:08:59;;;;;;;;;2.00;2.00;;;;;20.03;60.78;100332.53;5084208;28;8827;-58
2023/09/05 01:11:26;;;;;;;;;1.40;1.00;;;;;20.08;60.56;100338.31;5075468;28;8842;-58
2023/09/05 01:13:54;;;;;;;;;4.00;2.80;;;;;20.10;60.25;100336.28;5075489;28;8847;-58
2023/09/05 01:16:22;;;;;;;;;2.00;2.00;;;;;20.17;60.26;100321.03;5075672;28;8882;-59
2023/09/05 01:18:49;;;;;;;;;2.00;2.00;;;;;20.18;60.35;100322.72;5080886;28;8819;-61
2023/09/05 01:21:17;;;;;;;;;1.80;1.80;;;;;20.23;59.59;100320.34;5094398;28;8854;-61
2023/09/05 01:23:44;;;;;;;;;1.00;1.00;;;;;20.27;59.53;100316.31;5084454;28;8920;-58
2023/09/05 01:26:12;;;;;;;;;1.40;1.40;;;;;20.28;59.70;100318.00;5075767;28;8820;-58
2023/09/05 01:28:41;;;;;;;;;1.00;1.00;;;;;20.26;59.82;100314.59;5075003;28;8832;-58
2023/09/05 01:31:09;;;;;;;;;1.40;1.40;;;;;20.24;59.38;100318.50;5075162;28;8819;-58
2023/09/05 01:33:36;;;;;;;;;2.80;2.40;;;;;20.22;59.67;100318.69;5083997;28;8843;-61
2023/09/05 01:36:04;;;;;;;;;1.20;1.00;;;;;20.25;59.55;100312.91;5093945;28;8819;-60
2023/09/05 01:38:32;;;;;;;;;1.00;1.00;;;;;20.24;59.58;100318.50;5085640;28;8804;-59
2023/09/05 01:41:00;;;;;;;;;2.00;2.00;;;;;20.16;59.72;100313.97;5074882;28;8823;-58
2023/09/05 01:43:27;;;;;;;;;2.00;2.00;;;;;20.04;60.03;100318.00;5074720;28;8827;-58
2023/09/05 01:45:55;;;;;;;;;1.00;1.00;;;;;19.96;60.70;100325.31;5079400;28;8963;-60
2023/09/05 01:48:22;;;;;;;;;0.00;0.00;;;;;19.85;60.74;100320.25;5094258;28;8822;-61
2023/09/05 01:50:50;;;;;;;;;1.40;1.00;;;;;19.74;60.86;100318.78;5094456;28;8824;-61
2023/09/05 01:53:18;;;;;;;;;1.00;1.00;;;;;19.63;61.51;100321.81;5094413;28;8962;-60
2023/09/05 01:55:46;;;;;;;;;0.00;0.00;;;;;19.51;60.84;100320.44;5094292;28;8819;-59
2023/09/05 01:58:13;;;;;;;;;2.20;1.00;;;;;19.41;61.68;100317.09;5093615;28;8831;-60
2023/09/05 02:00:41;;;;;;;;;2.20;2.20;;;;;19.33;61.64;100308.13;5094020;28;8804;-61
2023/09/05 02:03:09;;;;;;;;;1.00;1.00;;;;;19.29;61.56;100315.75;5094929;28;8900;-61
2023/09/05 02:05:37;;;;;;;;;1.00;1.00;;;;;19.29;62.05;100317.59;5097883;28;8877;-61
2023/09/05 02:08:04;;;;;;;;;4.00;3.80;;;;;19.30;61.24;100308.47;5097414;28;8807;-58
2023/09/05 02:10:32;;;;;;;;;0.80;0.80;;;;;19.30;61.68;100311.19;5097559;28;8838;-58
2023/09/05 02:13:00;;;;;;;;;1.80;1.80;;;;;19.29;61.45;100310.34;5097792;28;8820;-60
2023/09/05 02:15:29;;;;;;;;;1.60;1.60;;;;;19.28;61.72;100313.22;5097502;28;8843;-58
2023/09/05 02:17:56;;;;;;;;;1.00;1.00;;;;;19.28;61.70;100314.03;5097533;28;8816;-59
2023/09/05 02:20:24;;;;;;;;;3.00;3.00;;;;;19.23;61.47;100319.13;5097114;28;8815;-60
2023/09/05 02:22:52;;;;;;;;;2.40;2.40;;;;;19.24;61.60;100314.53;5097216;28;8815;-59
2023/09/05 02:25:20;;;;;;;;;1.00;1.00;;;;;19.26;61.42;100309.84;5096939;28;8897;-61
2023/09/05 02:27:47;;;;;;;;;1.00;1.00;;;;;19.28;61.85;100315.91;5097140;28;8850;-59
2023/09/05 02:30:16;;;;;;;;;2.20;2.20;;;;;19.33;61.19;100313.53;5096916;28;8858;-60
2023/09/05 02:32:44;;;;;;;;;1.00;1.00;;;;;19.33;61.07;100298.19;5097346;28;8804;-61
2023/09/05 02:35:14;;;;;;;;;3.00;2.40;;;;;19.31;61.26;100300.22;5096884;28;8838;-58
2023/09/05 02:37:41;;;;;;;;;3.00;3.00;;;;;19.38;60.92;100305.78;5097050;28;8827;-59
2023/09/05 02:40:09;;;;;;;;;3.00;3.00;;;;;19.47;60.94;100300.19;5096991;28;8836;-59
2023/09/05 02:42:37;;;;;;;;;4.00;2.80;;;;;19.56;60.72;100306.47;5097004;28;8823;-60
2023/09/05 02:45:05;;;;;;;;;1.60;1.00;;;;;19.61;60.46;100306.78;5095812;28;8843;-60
2023/09/05 02:47:32;;;;;;;;;0.60;0.20;;;;;19.61;60.16;100306.78;5095733;28;8966;-60
2023/09/05 02:50:00;;;;;;;;;1.60;1.00;;;;;19.67;60.77;100306.94;5095642;28;8831;-59
2023/09/05 02:52:29;;;;;;;;;2.20;2.20;;;;;19.75;60.48;100309.63;5095394;28;8830;-60
2023/09/05 02:55:08;;;;;;;;;4.00;4.00;;;;;19.81;59.69;100308.94;5089523;28;8858;-59
2023/09/05 02:57:36;;;;;;;;;2.20;2.20;;;;;19.89;60.38;100317.03;5092957;28;8839;-59
2023/09/05 03:00:04;;;;;;;;;4.00;4.00;;;;;19.96;59.99;100322.59;5096283;28;8815;-61
2023/09/05 03:02:32;;;;;;;;;2.00;1.00;;;;;19.98;59.79;100326.84;5094726;28;8827;-58
2023/09/05 03:04:59;;;;;;;;;2.00;1.60;;;;;19.97;59.67;100322.44;5094839;28;9668;-60
2023/09/05 03:07:27;;;;;;;;;1.00;1.00;;;;;20.00;59.52;100316.69;5095516;28;8812;-59
2023/09/05 03:09:54;;;;;;;;;2.00;2.00;;;;;20.05;59.68;100319.75;5096320;28;8811;-59
2023/09/05 03:12:23;;;;;;;;;1.00;1.00;;;;;20.07;59.32;100304.19;5096377;28;8858;-59
2023/09/05 03:14:50;;;;;;;;;2.00;2.00;;;;;20.10;59.66;100314.66;5094746;28;8827;-60
2023/09/05 03:17:18;;;;;;;;;1.00;1.00;;;;;20.19;59.59;100316.31;5096123;28;8844;-59
2023/09/05 03:19:46;;;;;;;;;4.40;3.60;;;;;20.26;59.23;100311.06;5096170;28;8819;-60
2023/09/05 03:22:13;;;;;;;;;1.00;1.00;;;;;20.32;58.79;100315.78;5096175;28;8807;-60
2023/09/05 03:24:41;;;;;;;;;1.00;1.00;;;;;20.35;58.74;100310.00;5096091;28;8839;-60
2023/09/05 03:27:24;;;;;;;;;1.40;1.40;;;;;20.38;58.75;100310.50;5096268;28;8842;-59
2023/09/05 03:29:51;;;;;;;;;2.00;1.80;;;;;20.43;58.77;100302.72;5095685;28;8850;-60
2023/09/05 03:32:19;;;;;;;;;1.00;1.00;;;;;20.48;58.76;100297.59;5095874;28;8845;-61
2023/09/05 03:34:48;;;;;;;;;1.60;1.60;;;;;20.47;58.46;100301.31;5096169;28;8823;-61
2023/09/05 03:37:16;;;;;;;;;1.00;1.00;;;;;20.46;58.38;100304.22;5095861;28;8866;-59
2023/09/05 03:39:44;;;;;;;;;1.00;1.00;;;;;20.46;58.83;100296.94;5095586;28;8831;-60
2023/09/05 03:42:12;;;;;;;;;1.00;1.00;;;;;20.48;58.39;100304.88;5097116;28;8820;-59
2023/09/05 03:44:39;;;;;;;;;1.00;1.00;;;;;20.51;58.41;100299.97;5095763;28;8838;-59
2023/09/05 03:47:07;;;;;;;;;1.80;1.00;;;;;20.51;58.29;100312.63;5095702;28;8847;-61
2023/09/05 03:49:34;;;;;;;;;0.80;0.80;;;;;20.52;58.21;100307.06;5095509;28;9531;-61
2023/09/05 03:52:02;;;;;;;;;1.00;1.00;;;;;20.57;58.36;100303.81;5095325;28;8848;-58
2023/09/05 03:54:29;;;;;;;;;1.00;1.00;;;;;20.63;58.42;100306.66;5094700;28;8815;-61
2023/09/05 03:56:57;;;;;;;;;1.40;1.40;;;;;20.66;58.45;100303.59;5094437;28;8823;-59
2023/09/05 03:59:25;;;;;;;;;1.80;1.80;;;;;20.66;58.14;100306.31;5094452;28;8850;-61
2023/09/05 04:01:53;;;;;;;;;1.60;1.60;;;;;20.62;57.93;100309.56;5094535;28;8843;-60
2023/09/05 04:04:21;;;;;;;;;1.00;1.00;;;;;20.50;58.63;100317.22;5094382;28;8827;-61
2023/09/05 04:06:49;;;;;;;;;1.00;1.00;;;;;20.36;58.56;100314.38;5094617;28;8820;-59
2023/09/05 04:09:16;;;;;;;;;1.80;1.80;;;;;20.20;58.83;100315.31;5095040;28;8846;-61
2023/09/05 04:11:44;;;;;;;;;1.00;1.00;;;;;20.07;59.44;100325.81;5095267;28;8819;-58
2023/09/05 04:14:11;;;;;;;;;2.00;2.00;;;;;19.94;59.47;100324.66;5094713;28;8824;-60
2023/09/05 04:16:39;;;;;;;;;2.00;1.80;;;;;19.83;60.19;100323.16;5094790;28;8836;-58
2023/09/05 04:19:08;;;;;;;;;1.60;1.60;;;;;19.70;60.21;100322.81;5094992;28;8838;-59
2023/09/05 04:21:36;;;;;;;;;0.00;0.00;;;;;19.61;60.46;100315.72;5095037;28;8835;-60
2023/09/05 04:24:04;;;;;;;;;1.00;1.00;;;;;19.52;60.72;100315.91;5094511;28;9559;-61
2023/09/05 04:26:33;;;;;;;;;1.60;1.00;;;;;19.41;60.65;100318.97;5093767;28;8833;-58
2023/09/05 04:29:00;;;;;;;;;1.20;1.00;;;;;19.28;61.05;100324.84;5094671;28;8819;-60
2023/09/05 04:31:28;;;;;;;;;2.80;2.80;;;;;19.15;61.13;100329.88;5093940;28;8820;-58
2023/09/05 04:33:56;;;;;;;;;2.20;1.60;;;;;19.02;61.25;100329.50;5094317;28;8819;-59
2023/09/05 04:36:24;;;;;;;;;3.40;1.60;;;;;18.91;61.73;100334.38;5094711;28;8815;-60
2023/09/05 04:38:52;;;;;;;;;1.00;1.00;;;;;18.84;62.27;100327.94;5094417;28;8870;-60
2023/09/05 04:41:20;;;;;;;;;3.00;1.40;;;;;18.77;62.01;100335.88;5094632;28;8823;-61
2023/09/05 04:43:51;;;;;;;;;1.00;1.00;;;;;18.69;62.24;100335.00;5094382;28;8912;-59
2023/09/05 04:46:19;;;;;;;;;1.00;1.00;;;;;18.62;62.18;100342.91;5094228;28;8847;-61
2023/09/05 04:48:46;;;;;;;;;1.00;1.00;;;;;18.58;62.29;100338.84;5094199;28;8842;-61
2023/09/05 04:51:14;;;;;;;;;0.00;0.00;;;;;18.58;62.43;100341.53;5094278;28;8949;-61
2023/09/05 04:53:42;;;;;;;;;2.20;2.20;;;;;18.56;62.26;100340.84;5094114;28;8830;-61
2023/09/05 04:56:10;;;;;;;;;3.00;1.40;;;;;18.53;62.04;100341.16;5093723;28;8824;-61
2023/09/05 04:58:37;;;;;;;;;3.00;2.60;;;;;18.48;62.52;100338.13;5093643;28;8843;-62
2023/09/05 05:01:05;;;;;;;;;3.00;3.00;;;;;18.46;62.54;100334.75;5093202;28;8854;-60
2023/09/05 05:03:32;;;;;;;;;1.40;1.40;;;;;18.42;62.17;100344.16;5093608;28;8944;-60
2023/09/05 05:06:02;;;;;;;;;2.60;2.60;;;;;18.38;62.47;100337.38;5093746;28;8816;-59
2023/09/05 05:08:30;;;;;;;;;2.20;2.20;;;;;18.35;62.15;100342.25;5093958;28;8839;-61
2023/09/05 05:10:58;;;;;;;;;1.00;1.00;;;;;18.29;62.51;100340.22;5094060;28;8815;-60
2023/09/05 05:13:25;;;;;;;;;1.00;1.00;;;;;18.26;62.90;100341.38;5094392;28;8827;-61
2023/09/05 05:15:53;;;;;;;;;1.40;1.40;;;;;18.23;62.80;100335.44;5094510;28;8820;-61
2023/09/05 05:18:21;;;;;;;;;1.00;1.00;;;;;18.23;62.67;100338.97;5093629;28;8827;-60
2023/09/05 05:20:49;;;;;;;;;1.40;1.00;;;;;18.24;62.56;100343.38;5093199;28;8832;-61
2023/09/05 05:23:17;;;;;;;;;2.20;2.20;;;;;18.29;62.96;100351.00;5092945;28;8820;-62
2023/09/05 05:25:46;;;;;;;;;4.00;3.80;;;;;18.36;62.25;100352.91;5093395;28;9002;-58
2023/09/05 05:28:14;;;;;;;;;1.40;1.40;;;;;18.43;62.03;100350.41;5093727;28;8823;-59
2023/09/05 05:30:43;;;;;;;;;3.00;2.60;;;;;18.51;61.99;100353.16;5092873;28;8835;-61
2023/09/05 05:33:10;;;;;;;;;3.00;1.40;;;;;18.58;61.61;100352.31;5094000;28;8835;-59
2023/09/05 05:35:38;;;;;;;;;3.00;3.00;;;;;18.67;61.91;100359.44;5093041;28;9508;-60
2023/09/05 05:38:06;;;;;;;;;4.00;3.00;;;;;18.75;61.71;100353.22;5094973;28;8812;-61
2023/09/05 05:40:34;;;;;;;;;3.00;3.00;;;;;18.86;61.05;100348.38;5097209;28;8835;-61
2023/09/05 05:43:01;;;;;;;;;2.60;2.60;;;;;19.02;61.10;100348.41;5096468;28;8835;-62
2023/09/05 05:45:29;;;;;;;;;1.00;1.00;;;;;19.20;60.61;100343.75;5096327;28;8826;-61
2023/09/05 05:47:57;;;;;;;;;3.00;3.00;;;;;19.36;59.96;100340.22;5097467;28;8823;-61
2023/09/05 05:50:25;;;;;;;;;3.60;3.00;;;;;19.46;60.04;100349.84;5096670;28;8812;-59
2023/09/05 05:52:52;;;;;;;;;1.00;1.00;;;;;19.59;59.99;100352.03;5096877;28;8824;-59
2023/09/05 05:55:20;;;;;;;;;3.00;3.00;;;;;19.69;59.76;100348.16;5097004;28;8812;-59
2023/09/05 05:57:48;;;;;;;;;0.00;0.00;;;;;19.76;59.43;100349.16;5097020;28;8842;-60
2023/09/05 06:00:15;;;;;;;;;1.40;1.00;;;;;19.86;58.84;100354.41;5096336;28;8827;-60
2023/09/05 06:02:43;;;;;;;;;2.00;2.00;;;;;19.97;59.23;100354.88;5096085;28;8831;-59
2023/09/05 06:05:10;;;;;;;;;1.60;1.40;;;;;20.10;58.35;100351.69;5096216;28;8823;-59
2023/09/05 06:07:38;;;;;;;;;1.00;1.00;;;;;20.20;58.18;100355.03;5094303;28;8847;-60
2023/09/05 06:10:06;;;;;;;;;2.00;2.00;;;;;20.28;58.09;100339.63;5094852;28;8815;-59
2023/09/05 06:12:34;;;;;;;;;2.00;2.00;;;;;20.40;58.28;100342.81;5093579;28;8827;-59
2023/09/05 06:15:01;;;;;;;;;4.00;2.00;;;;;20.49;58.29;100341.75;5094027;28;8839;-59
2023/09/05 06:17:29;;;;;;;;;2.00;1.20;;;;;20.59;58.26;100343.22;5094091;28;8847;-59
2023/09/05 06:19:57;;;;;;;;;3.20;2.00;;;;;20.69;57.82;100343.84;5095022;28;8862;-60
2023/09/05 06:22:24;;;;;;;;;4.00;3.20;;;;;20.77;57.72;100348.41;5095331;28;8811;-59
2023/09/05 06:24:52;;;;;;;;;1.00;1.00;;;;;20.84;57.57;100340.22;5095007;28;8831;-59
2023/09/05 06:27:20;;;;;;;;;1.80;1.40;;;;;20.94;57.25;100340.88;5095001;28;8858;-60
2023/09/05 06:29:47;;;;;;;;;4.60;4.00;;;;;21.02;57.73;100334.56;5094042;28;8815;-59
2023/09/05 06:32:15;;;;;;;;;4.40;4.00;;;;;21.11;56.78;100345.16;5095127;28;8807;-59
2023/09/05 06:34:43;;;;;;;;;1.60;1.60;;;;;21.22;56.86;100341.19;5095385;28;8837;-59
2023/09/05 06:37:11;;;;;;;;;2.00;2.00;;;;;21.32;57.00;100336.38;5095353;28;8823;-59
2023/09/05 06:39:38;;;;;;;;;2.40;2.40;;;;;21.38;57.09;100341.06;5095921;28;8839;-60
2023/09/05 06:42:08;;;;;;;;;1.00;1.00;;;;;21.45;56.55;100347.44;5094834;28;8929;-59
2023/09/05 06:44:36;;;;;;;;;2.00;2.00;;;;;21.53;56.85;100347.38;5095631;28;8804;-62
2023/09/05 06:47:06;;;;;;;;;1.40;1.20;;;;;21.58;56.32;100356.69;5095480;28;8851;-59
2023/09/05 06:49:34;;;;;;;;;1.20;1.20;;;;;21.66;56.67;100344.94;5095069;28;8823;-59
2023/09/05 06:52:01;;;;;;;;;2.80;2.80;;;;;21.71;56.71;100347.97;5095045;28;8834;-59
2023/09/05 06:54:29;;;;;;;;;4.40;2.00;;;;;21.77;56.26;100348.06;5095366;28;8966;-59
2023/09/05 06:56:57;;;;;;;;;0.00;0.00;;;;;21.85;55.96;100347.16;5095309;28;8823;-59
2023/09/05 06:59:25;;;;;;;;;2.00;2.00;;;;;21.90;56.06;100352.84;5095048;28;8839;-59
2023/09/05 07:01:53;;;;;;;;;2.40;2.40;;;;;21.94;55.85;100356.88;5094989;28;8843;-60
2023/09/05 07:04:20;;;;;;;;;2.00;2.00;;;;;21.98;56.46;100356.34;5094825;28;8827;-60
2023/09/05 07:06:50;;;;;;;;;0.40;0.40;;;;;22.05;56.33;100351.00;5095177;28;8839;-61
2023/09/05 07:09:17;;;;;;;;;2.80;2.40;;;;;22.14;56.20;100349.88;5094758;28;8811;-59
2023/09/05 07:11:45;;;;;;;;;4.20;4.20;;;;;22.23;55.69;100354.22;5095411;28;8846;-61
2023/09/05 07:14:13;;;;;;;;;4.00;4.00;;;;;22.31;55.82;100354.13;5095168;28;8835;-60
2023/09/05 07:16:40;;;;;;;;;4.00;2.80;;;;;22.41;55.95;100351.97;5095018;28;8832;-62
2023/09/05 07:19:08;;;;;;;;;4.60;3.60;;;;;22.52;55.68;100352.38;5094543;28;8840;-60
2023/09/05 07:21:40;;;;;;;;;1.60;1.20;;;;;22.60;55.82;100356.84;5094760;28;8853;-61
2023/09/05 07:24:08;;;;;;;;;2.00;2.00;;;;;22.68;55.35;100354.88;5093922;28;8836;-62
2023/09/05 07:26:38;;;;;;;;;3.20;3.20;;;;;22.76;54.94;100353.94;5093969;28;8820;-59
2023/09/05 07:29:06;;;;;;;;;2.80;2.80;;;;;22.83;55.06;100352.16;5093749;28;8835;-62
2023/09/05 07:31:33;;;;;;;;;2.00;2.00;;;;;22.90;55.26;100353.06;5094090;28;8854;-60
2023/09/05 07:34:01;;;;;;;;;2.00;2.00;;;;;22.95;54.98;100346.03;5093873;28;8828;-61
2023/09/05 07:36:31;;;;;;;;;5.00;4.00;;;;;23.01;54.61;100352.56;5094146;28;8830;-60
2023/09/05 07:38:58;;;;;;;;;4.00;3.20;;;;;23.06;54.64;100344.69;5094256;28;8835;-59
2023/09/05 07:41:28;;;;;;;;;2.00;2.00;;;;;23.16;54.92;100354.22;5094406;28;8827;-59
2023/09/05 07:43:56;;;;;;;;;4.00;4.00;;;;;23.23;54.66;100355.13;5093996;28;8823;-60
2023/09/05 07:46:24;;;;;;;;;4.00;2.40;;;;;23.33;54.67;100344.81;5093671;28;8844;-60
2023/09/05 07:48:52;;;;;;;;;4.40;3.20;;;;;23.42;54.34;100357.25;5093790;28;8820;-60
2023/09/05 07:51:22;;;;;;;;;2.80;2.80;;;;;23.56;53.74;100363.63;5093796;28;8827;-60
2023/09/05 07:53:50;;;;;;;;;1.80;1.00;;;;;23.71;53.98;100369.84;5092805;28;8823;-60
2023/09/05 07:56:18;;;;;;;;;4.60;4.60;;;;;23.82;53.70;100356.56;5093933;28;8819;-60
2023/09/05 07:58:46;;;;;;;;;2.60;2.60;;;;;23.98;53.33;100358.19;5093906;28;8823;-59
2023/09/05 08:01:13;;;;;;;;;4.80;4.80;;;;;24.10;53.66;100359.31;5092572;28;8824;-60
2023/09/05 08:03:42;;;;;;;;;2.00;2.00;;;;;24.23;52.89;100357.56;5093146;28;8820;-59
2023/09/05 08:06:10;;;;;;;;;4.00;4.00;;;;;24.36;52.93;100359.50;5093561;28;8828;-60
2023/09/05 08:08:38;;;;;;;;;3.20;3.20;;;;;24.47;52.65;100356.22;5092926;28;9731;-60
2023/09/05 08:11:06;;;;;;;;;2.00;2.00;;;;;24.56;52.26;100360.50;5091078;28;8827;-59
2023/09/05 08:13:34;;;;;;;;;2.40;2.00;;;;;24.67;52.10;100362.66;5091598;28;8828;-59
2023/09/05 08:16:02;;;;;;;;;2.00;2.00;;;;;24.78;52.27;100365.66;5092691;28;8839;-60
2023/09/05 08:18:30;;;;;;;;;2.40;2.40;;;;;24.90;51.92;100363.19;5093122;28;8823;-60
2023/09/05 08:20:59;;;;;;;;;2.60;1.80;;;;;25.00;51.48;100366.34;5092567;28;8827;-62
2023/09/05 08:23:26;;;;;;;;;2.80;2.00;;;;;25.09;52.06;100367.88;5092399;28;8866;-59
2023/09/05 08:25:57;;;;;;;;;2.60;2.00;;;;;25.19;51.51;100363.69;5092551;28;8815;-60
2023/09/05 08:28:26;;;;;;;;;2.20;2.20;;;;;25.31;51.77;100372.16;5093040;28;8838;-60
2023/09/05 08:30:55;;;;;;;;;3.00;3.00;;;;;25.40;51.21;100368.19;5092649;28;9544;-59
2023/09/05 08:33:35;;;;;;;;;2.00;1.60;;;;;25.51;51.20;100373.03;5092896;28;8886;-60
2023/09/05 08:36:02;;;;;;;;;1.80;1.80;;;;;25.60;50.71;100362.53;5092990;28;8834;-60
2023/09/05 08:38:30;;;;;;;;;0.60;0.00;;;;;25.71;50.58;100364.69;5093315;28;8841;-60
2023/09/05 08:40:58;;;;;;;;;2.00;2.00;;;;;25.82;50.48;100355.84;5093505;28;8823;-61
2023/09/05 08:43:26;;;;;;;;;2.00;2.00;;;;;25.93;50.30;100352.53;5093235;28;8839;-59
2023/09/05 08:45:54;;;;;;;;;2.00;2.00;;;;;26.03;50.40;100344.75;5092268;28;8839;-60
2023/09/05 08:48:22;;;;;;;;;2.00;2.00;;;;;26.12;50.02;100346.19;5091966;28;8857;-62
2023/09/05 08:50:50;;;;;;;;;2.00;2.00;;;;;26.23;50.04;100342.84;5092042;28;8946;-61
2023/09/05 08:53:17;;;;;;;;;2.40;2.00;;;;;26.33;49.70;100348.69;5092466;28;8828;-60
2023/09/05 08:55:48;;;;;;;;;2.40;2.40;;;;;26.48;49.33;100348.47;5092822;28;8839;-60
2023/09/05 08:58:15;;;;;;;;;2.00;2.00;;;;;26.62;49.53;100350.13;5091842;28;8839;-61
2023/09/05 09:00:43;;;;;;;;;3.80;3.00;;;;;26.68;48.94;100344.66;5092194;28;8815;-60
2023/09/05 09:03:11;;;;;;;;;2.40;2.00;;;;;26.74;48.99;100352.00;5092800;28;8897;-61
2023/09/05 09:05:41;;;;;;;;;2.00;2.00;;;;;26.84;48.75;100346.91;5093618;28;8827;-61
2023/09/05 09:08:09;;;;;;;;;2.00;2.00;;;;;26.94;48.61;100341.78;5093742;28;8835;-61
2023/09/05 09:10:37;;;;;;;;;2.80;2.60;;;;;27.07;48.60;100349.94;5093328;28;8892;-60
2023/09/05 09:13:05;;;;;;;;;3.00;2.60;;;;;27.22;48.33;100339.59;5096573;28;8865;-62
2023/09/05 09:15:34;;;;;;;;;2.20;2.20;;;;;27.35;48.08;100345.00;5097414;28;8824;-60
2023/09/05 09:18:01;;;;;;;;;1.80;1.60;;;;;27.48;47.76;100341.31;5097202;28;8863;-61
2023/09/05 09:20:29;;;;;;;;;2.00;2.00;;;;;27.56;47.65;100341.88;5097759;28;8877;-61
2023/09/05 09:22:59;;;;;;;;;3.20;2.80;;;;;27.65;47.91;100342.44;5097165;28;8808;-60
2023/09/05 09:25:28;;;;;;;;;2.00;2.00;;;;;27.76;47.69;100337.13;5096234;28;8836;-61
2023/09/05 09:27:57;;;;;;;;;3.00;3.00;;;;;27.95;46.95;100336.13;5096543;28;8874;-61
2023/09/05 09:30:26;;;;;;;;;0.80;0.80;;;;;28.17;47.06;100329.19;5097289;28;8824;-61
2023/09/05 09:32:53;;;;;;;;;1.80;1.20;;;;;28.36;46.60;100328.16;5097500;28;8842;-61
2023/09/05 09:35:21;;;;;;;;;1.80;1.80;;;;;28.43;46.39;100323.44;5096094;28;8819;-61
2023/09/05 09:37:49;;;;;;;;;2.20;2.00;;;;;28.46;46.28;100322.97;5096465;28;8846;-61
2023/09/05 09:40:17;;;;;;;;;1.60;1.00;;;;;28.45;46.57;100318.56;5096619;28;8831;-61
2023/09/05 09:42:45;;;;;;;;;1.40;1.00;;;;;28.50;46.34;100318.72;5097084;28;8916;-61
2023/09/05 09:45:15;;;;;;;;;2.00;2.00;;;;;28.51;46.80;100319.59;5096989;28;8831;-60
2023/09/05 09:47:44;;;;;;;;;2.00;1.80;;;;;28.53;46.69;100315.53;5096463;28;8973;-61
2023/09/05 09:50:11;;;;;;;;;1.80;1.40;;;;;28.59;46.06;100317.34;5096929;28;8823;-61
2023/09/05 09:52:40;;;;;;;;;1.60;1.40;;;;;28.82;45.98;100311.19;5096638;28;8819;-60
2023/09/05 09:55:08;;;;;;;;;2.00;2.00;;;;;29.36;44.38;100311.09;5095757;28;8831;-60
2023/09/05 09:57:38;;;;;;;;;1.00;1.00;;;;;29.98;43.93;100305.00;5095557;28;8851;-61
2023/09/05 10:00:11;;;;;;;;;1.60;1.60;;;;;30.77;42.39;100308.81;5095730;28;8823;-60
2023/09/05 10:02:40;;;;;;;;;1.80;1.80;;;;;31.62;41.59;100308.56;5095980;28;8831;-60
2023/09/05 10:05:08;;;;;;;;;1.80;1.20;;;;;32.34;40.86;100306.75;5095928;28;8904;-61
2023/09/05 10:07:36;;;;;;;;;2.80;2.00;;;;;33.10;39.46;100309.41;5095345;28;8831;-60
2023/09/05 10:10:04;;;;;;;;;0.00;0.00;;;;;33.55;39.18;100301.63;5096182;28;8860;-61
2023/09/05 10:12:32;;;;;;;;;2.20;2.20;;;;;34.12;38.70;100299.91;5096190;28;8822;-60
2023/09/05 10:15:00;;;;;;;;;1.60;1.60;;;;;34.80;38.21;100300.63;5095967;28;8838;-61
2023/09/05 10:17:28;;;;;;;;;0.00;0.00;;;;;35.41;36.90;100301.66;5096526;28;8847;-60
2023/09/05 10:19:56;;;;;;;;;2.00;2.00;;;;;35.95;36.66;100306.41;5096069;28;8833;-61
2023/09/05 10:22:24;;;;;;;;;1.20;1.00;;;;;36.52;36.17;100293.88;5095668;28;8846;-61
2023/09/05 10:24:52;;;;;;;;;1.00;1.00;;;;;37.01;36.26;100285.66;5095022;28;8826;-61
2023/09/05 10:27:20;;;;;;;;;1.80;1.20;;;;;37.12;35.20;100285.34;5095267;28;8829;-62
2023/09/05 10:29:48;;;;;;;;;2.60;2.20;;;;;37.19;35.97;100291.41;5094781;28;8969;-61
2023/09/05 10:32:17;;;;;;;;;1.60;1.00;;;;;37.13;35.21;100284.22;5095853;28;8822;-61
2023/09/05 10:34:45;;;;;;;;;1.00;1.00;;;;;36.77;36.38;100290.19;5094741;28;8849;-61
2023/09/05 10:37:13;;;;;;;;;1.00;1.00;;;;;36.50;36.98;100293.31;5094355;28;8915;-61
2023/09/05 10:39:41;;;;;;;;;1.80;1.80;;;;;36.13;37.24;100284.47;5095075;28;8845;-61
2023/09/05 10:42:09;;;;;;;;;1.00;1.00;;;;;35.77;38.08;100287.59;5094940;28;8860;-61
2023/09/05 10:44:37;;;;;;;;;1.00;0.80;;;;;35.47;38.35;100297.81;5095052;28;8842;-60
2023/09/05 10:47:05;;;;;;;;;1.60;1.40;;;;;35.33;38.54;100289.16;5094919;28;8850;-61
2023/09/05 10:49:32;;;;;;;;;1.80;1.60;;;;;35.17;39.03;100294.94;5094440;28;8845;-61
2023/09/05 10:52:03;;;;;;;;;1.00;1.00;;;;;35.15;39.43;100283.28;5095087;28;8972;-60
2023/09/05 10:54:32;;;;;;;;;1.80;1.80;;;;;35.27;38.59;100287.50;5094017;28;8845;-61
2023/09/05 10:57:01;;;;;;;;;2.20;2.20;;;;;35.58;38.55;100278.13;5093705;28;8858;-60
2023/09/05 10:59:29;;;;;;;;;2.40;2.00;;;;;35.76;37.70;100279.53;5092856;28;8837;-60
2023/09/05 11:02:05;;;;;;;;;0.80;0.80;;;;;35.78;37.82;100280.09;5092853;28;8846;-61
2023/09/05 11:04:34;;;;;;;;;1.00;1.00;;;;;35.79;38.17;100279.81;5093106;28;8834;-61
2023/09/05 11:07:02;;;;;;;;;1.00;1.00;;;;;35.72;38.72;100287.56;5093539;28;8895;-61
2023/09/05 11:09:30;;;;;;;;;0.60;0.60;;;;;35.71;38.27;100290.63;5093520;28;8851;-61
2023/09/05 11:12:00;;;;;;;;;1.00;1.00;;;;;35.80;38.45;100283.44;5093135;28;8930;-60
2023/09/05 11:14:28;;;;;;;;;1.00;1.00;;;;;36.08;37.48;100282.84;5092983;28;8830;-60
2023/09/05 11:16:56;;;;;;;;;1.00;1.00;;;;;36.57;36.30;100271.63;5094756;28;8860;-60
2023/09/05 11:19:24;;;;;;;;;2.00;2.00;;;;;37.08;35.43;100284.22;5093448;28;8845;-61
2023/09/05 11:21:52;;;;;;;;;1.00;1.00;;;;;37.58;35.28;100277.53;5092174;28;8833;-61
2023/09/05 11:24:20;;;;;;;;;0.80;0.80;;;;;38.19;34.52;100282.28;5092821;28;8829;-62
2023/09/05 11:26:48;;;;;;;;;1.00;1.00;;;;;38.81;33.49;100282.13;5092996;28;8837;-61
2023/09/05 11:29:17;;;;;;;;;0.60;0.40;;;;;39.40;33.14;100282.47;5092573;28;8875;-61
2023/09/05 11:31:44;;;;;;;;;1.00;1.00;;;;;39.92;32.92;100282.19;5092611;28;8850;-61
2023/09/05 11:34:12;;;;;;;;;0.20;0.20;;;;;40.37;31.91;100277.75;5092629;28;8992;-61
2023/09/05 11:36:40;;;;;;;;;0.20;0.20;;;;;40.58;32.01;100288.25;5092060;28;9496;-61
2023/09/05 11:39:09;;;;;;;;;0.60;0.00;;;;;40.70;31.48;100282.16;5092096;28;8826;-61